Time;durP1;ratioP1;P1;durP2;ratioP2;P2;SDS_P1;SDS_P2;PMS_P1;PMS_P2;Temp;Humidity;BMP_temperature;BMP_pressure;BME280_temperature;BME280_humidity;BME280_pressure;Samples;Min_cycle;Max_cycle;Signal;HPM_P1;HPM_P2
2021/06/26 00:04:49;;;;;;;46.28;27.95;;;;;;;14.04;85.89;101815.25;10538781;28;20484;-58
2021/06/26 00:09:51;;;;;;;33.03;25.60;;;;;;;14.06;85.83;101808.13;10538193;28;20388;-58
2021/06/26 00:14:53;;;;;;;33.00;24.25;;;;;;;14.05;85.66;101810.84;10541896;28;20498;-58
2021/06/26 00:19:57;;;;;;;32.53;23.50;;;;;;;13.97;85.95;101799.88;10547031;28;20106;-58
2021/06/26 00:24:59;;;;;;;33.13;24.05;;;;;;;13.93;85.89;101804.47;10546221;28;20048;-58
2021/06/26 00:30:02;;;;;;;35.92;24.65;;;;;;;13.90;85.57;101804.63;10546857;28;20051;-59
2021/06/26 00:35:05;;;;;;;30.13;23.13;;;;;;;13.93;85.49;101791.31;10546534;28;20071;-59
2021/06/26 00:40:08;;;;;;;32.03;24.08;;;;;;;13.88;85.58;101802.09;10546108;28;20065;-58
2021/06/26 00:45:13;;;;;;;31.80;23.73;;;;;;;13.97;84.91;101797.25;10545636;28;20519;-59
2021/06/26 00:50:27;;;;;;;31.13;22.73;;;;;;;13.75;85.63;101801.06;10545592;28;20048;-59
2021/06/26 00:55:31;;;;;;;35.90;24.98;;;;;;;13.68;85.15;101805.81;10545447;28;20052;-58
2021/06/26 01:00:33;;;;;;;34.67;26.10;;;;;;;13.73;86.89;101803.81;10544195;28;20063;-58
2021/06/26 01:05:36;;;;;;;30.13;22.73;;;;;;;13.75;85.57;101793.16;10545335;28;20066;-58
2021/06/26 01:10:43;;;;;;;32.35;23.10;;;;;;;13.60;86.53;101802.78;10545237;28;20040;-58
2021/06/26 01:15:45;;;;;;;44.70;28.50;;;;;;;13.73;85.98;101811.69;10544555;28;20051;-58
2021/06/26 01:20:48;;;;;;;35.00;24.88;;;;;;;13.68;85.91;101804.97;10544665;28;20052;-58
2021/06/26 01:25:50;;;;;;;34.17;24.52;;;;;;;13.59;86.00;101808.13;10544009;28;20043;-58
2021/06/26 01:30:52;;;;;;;31.10;23.33;;;;;;;13.57;86.28;101802.94;10544735;28;20051;-59
2021/06/26 01:35:55;;;;;;;31.52;23.92;;;;;;;13.44;86.97;101807.16;10543995;28;20048;-58
2021/06/26 01:40:57;;;;;;;27.83;20.70;;;;;;;13.48;86.59;101813.94;10543929;28;20506;-58
2021/06/26 01:45:59;;;;;;;34.20;25.25;;;;;;;13.52;86.61;101803.19;10543595;28;20055;-59
2021/06/26 01:51:02;;;;;;;30.92;23.67;;;;;;;13.58;85.42;101804.63;10543592;28;20054;-59
2021/06/26 01:56:05;;;;;;;29.67;21.63;;;;;;;13.66;84.06;101807.69;10542041;28;20068;-59
2021/06/26 02:01:07;;;;;;;27.38;21.88;;;;;;;13.52;85.86;101811.06;10539902;28;20076;-58
2021/06/26 02:06:09;;;;;;;32.08;24.15;;;;;;;13.44;85.99;101815.88;10541041;28;20052;-58
2021/06/26 02:11:12;;;;;;;33.42;23.02;;;;;;;13.32;85.73;101821.81;10540675;28;20048;-58
2021/06/26 02:16:14;;;;;;;31.13;22.73;;;;;;;13.36;86.83;101824.19;10540305;28;20063;-58
2021/06/26 02:21:17;;;;;;;34.45;25.23;;;;;;;13.23;86.76;101819.63;10539929;28;20403;-59
2021/06/26 02:26:20;;;;;;;36.65;23.58;;;;;;;13.23;85.64;101822.25;10540022;28;20052;-58
2021/06/26 02:31:22;;;;;;;30.55;21.85;;;;;;;13.17;85.94;101813.75;10540026;28;20055;-58
2021/06/26 02:36:24;;;;;;;28.13;21.50;;;;;;;13.24;82.86;101810.81;10538457;28;20499;-58
2021/06/26 02:41:27;;;;;;;30.50;23.83;;;;;;;13.19;85.50;101819.75;10539622;28;20044;-58
2021/06/26 02:46:29;;;;;;;31.00;23.10;;;;;;;13.15;86.69;101826.13;10539103;28;20048;-58
2021/06/26 02:51:32;;;;;;;31.77;21.05;;;;;;;13.40;85.69;101816.13;10539257;28;20143;-58
2021/06/26 02:56:34;;;;;;;33.95;23.40;;;;;;;13.53;85.71;101810.16;10500558;28;1086621;-58
2021/06/26 03:01:36;;;;;;;39.97;26.83;;;;;;;13.50;86.39;101825.22;10540700;28;20054;-58
2021/06/26 03:06:39;;;;;;;45.35;28.23;;;;;;;13.65;86.26;101818.28;10540130;28;20086;-58
2021/06/26 03:11:41;;;;;;;39.30;24.67;;;;;;;13.56;86.24;101812.59;10540348;28;20048;-58
2021/06/26 03:16:43;;;;;;;36.55;25.20;;;;;;;13.56;85.85;101824.91;10539980;28;20048;-59
2021/06/26 03:21:46;;;;;;;35.60;24.85;;;;;;;13.50;86.33;101826.09;10539898;28;20044;-58
2021/06/26 03:26:48;;;;;;;34.90;26.80;;;;;;;13.46;85.99;101818.44;10539394;28;20048;-59
2021/06/26 03:31:50;;;;;;;38.88;26.80;;;;;;;13.33;86.96;101824.34;10540062;28;20088;-58
2021/06/26 03:36:53;;;;;;;32.20;24.20;;;;;;;13.47;86.10;101828.88;10538182;28;20051;-59
2021/06/26 03:41:55;;;;;;;35.60;24.52;;;;;;;13.42;85.35;101824.81;10539075;28;20510;-58
2021/06/26 03:46:58;;;;;;;53.20;29.70;;;;;;;13.37;86.58;101835.56;10538909;28;20048;-58
2021/06/26 03:52:00;;;;;;;39.03;25.60;;;;;;;13.37;86.86;101838.19;10539101;28;20075;-58
2021/06/26 03:57:03;;;;;;;41.28;25.95;;;;;;;13.48;87.04;101837.63;10538553;28;20088;-58
2021/06/26 04:02:07;;;;;;;41.40;26.95;;;;;;;13.65;86.26;101829.69;10538911;28;20483;-58
2021/06/26 04:07:09;;;;;;;40.75;27.65;;;;;;;13.87;85.89;101839.91;10538756;28;20109;-58
2021/06/26 04:12:11;;;;;;;36.15;24.35;;;;;;;13.81;86.07;101834.13;10538591;28;20534;-58
2021/06/26 04:17:14;;;;;;;47.85;28.77;;;;;;;14.06;85.78;101825.72;10538623;28;20058;-58
2021/06/26 04:22:16;;;;;;;40.85;27.48;;;;;;;14.22;86.43;101834.47;10538510;28;20066;-58
2021/06/26 04:27:18;;;;;;;40.40;28.92;;;;;;;14.32;85.93;101832.13;10538350;28;20407;-58
2021/06/26 04:32:21;;;;;;;42.90;29.90;;;;;;;14.56;85.64;101822.00;10539202;28;20046;-58
2021/06/26 04:37:23;;;;;;;45.03;30.77;;;;;;;14.61;82.55;101827.03;10536760;28;20127;-58
2021/06/26 04:42:26;;;;;;;53.80;33.67;;;;;;;14.79;85.46;101830.38;10538173;28;20040;-58
2021/06/26 04:47:28;;;;;;;42.75;29.15;;;;;;;14.71;84.97;101825.56;10537881;28;20055;-58
2021/06/26 04:52:30;;;;;;;41.30;27.42;;;;;;;14.81;85.69;101826.72;10537905;28;20051;-58
2021/06/26 04:57:33;;;;;;;34.67;26.35;;;;;;;15.05;84.92;101823.56;10537313;28;20063;-58
2021/06/26 05:02:35;;;;;;;54.90;34.33;;;;;;;15.15;85.85;101815.94;10543518;28;20055;-58
2021/06/26 05:07:38;;;;;;;59.17;40.25;;;;;;;15.45;85.03;101817.63;10545402;28;20044;-58
2021/06/26 05:12:44;;;;;;;44.83;33.55;;;;;;;15.36;85.74;101825.16;10544939;28;20067;-59
2021/06/26 05:17:46;;;;;;;42.85;31.90;;;;;;;15.55;84.90;101827.53;10544176;28;20474;-59
2021/06/26 05:22:49;;;;;;;45.50;32.58;;;;;;;15.70;85.26;101823.09;10544515;28;20442;-58
2021/06/26 05:27:51;;;;;;;61.20;38.30;;;;;;;15.51;86.01;101820.72;10544750;28;20126;-59
2021/06/26 05:32:54;;;;;;;50.90;36.92;;;;;;;15.50;85.86;101828.75;10543354;28;20044;-58
2021/06/26 05:37:56;;;;;;;59.65;39.97;;;;;;;15.52;85.85;101826.88;10543883;28;20077;-58
2021/06/26 05:42:58;;;;;;;47.75;34.80;;;;;;;15.59;85.49;101833.47;10543632;28;20044;-59
2021/06/26 05:48:01;;;;;;;51.90;37.88;;;;;;;15.76;85.12;101829.81;10543612;28;20066;-58
2021/06/26 05:53:03;;;;;;;54.08;39.08;;;;;;;15.61;85.05;101828.94;10543978;28;20048;-58
2021/06/26 05:58:06;;;;;;;44.88;34.28;;;;;;;15.27;85.75;101830.19;10542818;28;20060;-59
2021/06/26 06:03:08;;;;;;;49.47;37.97;;;;;;;15.37;85.82;101823.41;10543178;28;20052;-58
2021/06/26 06:08:10;;;;;;;50.85;36.53;;;;;;;15.28;86.66;101827.44;10543004;28;20056;-59
2021/06/26 06:13:15;;;;;;;45.92;34.67;;;;;;;15.63;85.85;101831.47;10541271;28;20070;-59
2021/06/26 06:18:18;;;;;;;46.97;35.35;;;;;;;15.86;85.44;101832.72;10542320;28;20403;-59
2021/06/26 06:23:21;;;;;;;44.67;36.30;;;;;;;16.32;83.06;101840.31;10542096;28;20115;-58
2021/06/26 06:28:23;;;;;;;47.97;35.25;;;;;;;16.26;82.74;101846.03;10542025;28;20055;-58
2021/06/26 06:33:25;;;;;;;50.60;37.00;;;;;;;16.23;84.39;101843.56;10540148;28;20484;-58
2021/06/26 06:38:28;;;;;;;44.38;35.80;;;;;;;16.51;82.66;101851.38;10541130;28;20048;-58
2021/06/26 06:43:30;;;;;;;44.15;32.75;;;;;;;16.60;82.43;101854.38;10541299;28;20480;-58
2021/06/26 06:48:33;;;;;;;40.10;31.83;;;;;;;16.76;81.69;101859.47;10523112;28;20110;-59
2021/06/26 06:53:36;;;;;;;40.50;33.03;;;;;;;17.03;81.78;101856.78;10541595;28;20052;-59
2021/06/26 06:58:38;;;;;;;36.25;29.77;;;;;;;17.27;80.27;101855.13;10540624;28;20074;-59
2021/06/26 07:03:40;;;;;;;31.80;27.27;;;;;;;17.41;80.25;101858.63;10539483;28;20048;-59
2021/06/26 07:08:43;;;;;;;32.65;27.30;;;;;;;17.87;78.88;101851.91;10540137;28;20410;-59
2021/06/26 07:13:45;;;;;;;29.35;26.00;;;;;;;18.02;78.19;101856.09;10539832;28;20090;-59
2021/06/26 07:18:47;;;;;;;29.90;22.90;;;;;;;18.32;76.05;101855.66;10539885;28;20099;-59
2021/06/26 07:23:50;;;;;;;26.75;23.48;;;;;;;18.48;74.35;101847.44;10539191;28;20510;-59
2021/06/26 07:28:52;;;;;;;25.10;21.00;;;;;;;19.03;74.04;101849.56;10540018;28;20048;-59
2021/06/26 07:33:54;;;;;;;27.35;20.60;;;;;;;19.08;73.40;101847.41;10539664;28;20056;-60
2021/06/26 07:38:57;;;;;;;20.40;18.40;;;;;;;19.47;72.17;101845.28;10521716;28;20052;-59
2021/06/26 07:43:59;;;;;;;20.63;18.42;;;;;;;19.44;71.69;101837.53;10539065;28;20051;-59
2021/06/26 07:49:02;;;;;;;20.15;18.10;;;;;;;19.97;69.80;101837.78;10538811;28;20392;-60
2021/06/26 07:54:04;;;;;;;20.30;18.17;;;;;;;19.74;68.61;101831.63;10539028;28;20411;-59
2021/06/26 07:59:06;;;;;;;19.08;17.08;;;;;;;19.90;66.88;101830.41;10536841;28;20048;-59
2021/06/26 08:04:09;;;;;;;18.10;16.25;;;;;;;20.37;67.61;101829.16;10538546;28;20056;-59
2021/06/26 08:09:11;;;;;;;18.77;16.08;;;;;;;20.36;63.93;101824.00;10538694;28;20044;-60
2021/06/26 08:14:13;;;;;;;16.08;14.45;;;;;;;20.64;64.26;101827.88;10538423;28;20044;-59
2021/06/26 08:19:16;;;;;;;21.13;17.42;;;;;;;20.73;62.28;101831.59;10538434;28;20054;-60
2021/06/26 08:24:19;;;;;;;18.08;15.90;;;;;;;21.53;61.13;101819.41;10538793;28;20052;-60
2021/06/26 08:29:33;;;;;;;23.48;16.17;;;;;;;21.41;60.51;101810.63;10539423;28;20123;-60
2021/06/26 08:34:35;;;;;;;18.38;15.55;;;;;;;22.57;61.13;101813.69;10539982;28;20074;-60
2021/06/26 08:39:37;;;;;;;20.95;16.80;;;;;;;22.27;58.25;101816.34;10546777;28;20051;-60
2021/06/26 08:44:41;;;;;;;19.95;15.60;;;;;;;22.88;61.07;101814.34;10546608;28;20052;-60
2021/06/26 08:49:46;;;;;;;18.65;16.73;;;;;;;22.82;57.96;101818.41;10545349;28;20059;-59
2021/06/26 08:54:52;;;;;;;20.20;17.92;;;;;;;22.51;58.05;101815.09;10545823;28;20055;-60
2021/06/26 08:59:55;;;;;;;22.13;17.83;;;;;;;23.03;56.08;101819.19;10544433;28;20399;-60
2021/06/26 09:04:59;;;;;;;20.55;18.45;;;;;;;23.22;55.88;101813.84;10545269;28;20416;-60
2021/06/26 09:10:30;;;;;;;19.58;17.25;;;;;;;24.03;55.21;101825.69;10544057;28;20048;-61
2021/06/26 09:15:33;;;;;;;;;;;;;;;23.50;54.73;101811.16;10528159;28;20051;-60
2021/06/26 09:20:40;;;;;;;22.35;18.63;;;;;;;24.10;54.37;101810.69;10544797;28;19962;-61
2021/06/26 09:25:42;;;;;;;19.77;17.75;;;;;;;24.76;53.92;101813.94;10545178;28;20071;-61
2021/06/26 09:30:45;;;;;;;21.23;19.17;;;;;;;25.14;50.91;101814.50;10544844;28;20048;-61
2021/06/26 09:36:00;;;;;;;22.80;18.52;;;;;;;24.73;51.55;101815.09;10543803;28;20048;-60
2021/06/26 09:41:14;;;;;;;22.40;19.65;;;;;;;24.22;51.84;101816.66;10544301;28;20044;-60
2021/06/26 09:46:18;;;;;;;20.65;17.35;;;;;;;25.88;50.43;101821.00;10542047;28;20399;-61
2021/06/26 09:51:23;;;;;;;19.00;16.45;;;;;;;24.92;49.23;101827.44;10544341;28;20044;-60
2021/06/26 09:56:40;;;;;;;21.38;18.65;;;;;;;25.40;48.22;101819.84;10543749;28;20064;-61
2021/06/26 10:01:44;;;;;;;22.08;17.85;;;;;;;25.34;48.29;101826.69;10543628;28;20054;-61
2021/06/26 10:06:46;;;;;;;23.02;17.75;;;;;;;26.12;48.62;101809.50;10542281;28;20059;-61
2021/06/26 10:11:49;;;;;;;20.65;17.45;;;;;;;26.01;45.65;101811.66;10543423;28;20048;-61
2021/06/26 10:16:53;;;;;;;26.05;20.35;;;;;;;25.16;47.95;101815.19;10542728;28;20079;-60
2021/06/26 10:21:55;;;;;;;16.67;13.80;;;;;;;28.07;45.37;101803.97;10542892;28;20051;-60
2021/06/26 10:26:58;;;;;;;20.80;18.38;;;;;;;26.32;42.54;101803.81;10541945;28;20052;-61
2021/06/26 10:32:11;;;;;;;18.58;16.65;;;;;;;26.59;47.15;101796.44;10541868;28;20058;-62
2021/06/26 10:37:22;;;;;;;19.33;17.27;;;;;;;25.64;50.90;101794.13;10542231;28;20067;-61
2021/06/26 10:42:33;;;;;;;20.52;18.40;;;;;;;26.12;44.68;101795.25;10541735;28;20078;-62
2021/06/26 10:47:41;;;;;;;22.35;18.95;;;;;;;25.78;46.93;101785.44;10523951;28;20056;-61
2021/06/26 10:52:57;;;;;;;22.33;20.02;;;;;;;26.16;45.57;101796.63;10541119;28;20058;-61
2021/06/26 10:58:00;;;;;;;26.55;19.02;;;;;;;27.55;45.46;101787.44;10522621;28;20052;-61
2021/06/26 11:03:04;;;;;;;18.88;15.75;;;;;;;28.28;44.89;101789.84;10540799;28;20130;-60
2021/06/26 11:08:17;;;;;;;19.98;17.90;;;;;;;27.00;42.72;101794.53;10539508;28;20109;-61
2021/06/26 11:13:24;;;;;;;19.15;17.25;;;;;;;27.53;41.38;101781.41;10540586;28;20052;-60
2021/06/26 11:18:27;;;;;;;15.43;13.93;;;;;;;26.50;48.74;101785.69;10539240;28;20055;-60
2021/06/26 11:23:29;;;;;;;22.70;15.77;;;;;;;25.87;44.94;101781.78;10538635;28;20510;-60
2021/06/26 11:28:42;;;;;;;13.02;11.73;;;;;;;26.40;46.43;101790.41;10539357;28;20048;-61
2021/06/26 11:33:44;;;;;;;15.52;13.30;;;;;;;27.48;43.46;101783.78;10539577;28;20420;-60
2021/06/26 11:38:46;;;;;;;12.82;11.07;;;;;;;28.44;41.83;101773.50;10539608;28;20395;-60
2021/06/26 11:43:50;;;;;;;14.65;13.18;;;;;;;25.99;43.14;101787.72;10538704;28;20044;-60
2021/06/26 11:48:52;;;;;;;11.48;10.32;;;;;;;26.67;44.82;101796.44;10539265;28;20130;-60
2021/06/26 11:53:54;;;;;;;15.95;14.10;;;;;;;25.47;45.60;101790.53;10539341;28;20052;-60
2021/06/26 11:58:58;;;;;;;17.33;14.43;;;;;;;24.98;46.96;101794.69;10538789;28;20202;-60
2021/06/26 12:04:02;;;;;;;15.40;9.88;;;;;;;25.83;48.71;101784.97;10539640;28;20044;-59
2021/06/26 12:09:07;;;;;;;11.10;9.43;;;;;;;25.99;46.95;101784.16;10541810;28;20059;-60
2021/06/26 12:14:10;;;;;;;11.68;10.57;;;;;;;25.24;46.33;101787.59;10546641;28;20051;-59
2021/06/26 12:19:13;;;;;;;16.75;13.73;;;;;;;24.32;46.40;101785.28;10547394;28;20407;-61
2021/06/26 12:24:32;;;;;;;12.10;10.93;;;;;;;25.19;48.23;101790.75;10546184;28;20403;-60
2021/06/26 12:29:35;;;;;;;11.13;10.02;;;;;;;24.63;48.83;101788.44;10546203;28;20051;-60
2021/06/26 12:34:45;;;;;;;11.07;9.40;;;;;;;24.64;48.14;101784.72;10546755;28;20059;-60
2021/06/26 12:39:48;;;;;;;11.98;10.30;;;;;;;24.76;48.97;101789.84;10546451;28;20411;-60
2021/06/26 12:44:56;;;;;;;9.98;9.10;;;;;;;24.42;51.84;101783.38;10546513;28;20052;-59
2021/06/26 12:50:09;;;;;;;14.85;8.93;;;;;;;24.43;50.49;101786.91;10546755;28;20044;-61
2021/06/26 12:55:18;;;;;;;11.65;10.55;;;;;;;24.09;49.10;101782.25;10546096;28;20063;-60
2021/06/26 13:00:21;;;;;;;10.15;9.25;;;;;;;24.02;52.22;101789.22;10546489;28;20048;-60
2021/06/26 13:05:25;;;;;;;11.18;9.82;;;;;;;23.56;53.72;101781.19;10545278;28;20048;-60
2021/06/26 13:10:28;;;;;;;8.90;8.00;;;;;;;23.67;55.50;101780.13;10544153;28;20067;-60
2021/06/26 13:15:31;;;;;;;8.82;8.10;;;;;;;23.59;55.07;101777.34;10544747;28;20047;-60
2021/06/26 13:20:33;;;;;;;8.30;7.60;;;;;;;24.37;54.93;101780.31;10544620;28;20082;-60
2021/06/26 13:25:37;;;;;;;10.68;9.52;;;;;;;24.91;48.08;101774.84;10544770;28;20052;-60
2021/06/26 13:30:40;;;;;;;12.95;10.75;;;;;;;24.92;47.45;101778.41;10545402;28;20048;-60
2021/06/26 13:35:42;;;;;;;10.65;9.65;;;;;;;25.40;45.82;101766.22;10543980;28;20040;-60
2021/06/26 13:40:50;;;;;;;11.63;10.43;;;;;;;25.77;44.51;101763.16;10542988;28;20062;-60
2021/06/26 13:45:52;;;;;;;10.43;9.43;;;;;;;27.57;41.08;101757.66;10543892;28;20056;-59
2021/06/26 13:50:55;;;;;;;8.45;7.57;;;;;;;27.49;43.96;101755.88;10542941;28;20125;-60
2021/06/26 13:55:57;;;;;;;12.07;9.20;;;;;;;27.10;40.37;101755.84;10543486;28;20052;-59
2021/06/26 14:00:59;;;;;;;10.60;9.52;;;;;;;26.12;42.52;101746.94;10544312;28;20055;-59
2021/06/26 14:06:02;;;;;;;10.77;9.60;;;;;;;27.88;42.20;101737.97;10543004;28;20048;-60
2021/06/26 14:11:04;;;;;;;9.52;8.55;;;;;;;27.35;41.99;101735.09;10543221;28;20484;-60
2021/06/26 14:16:09;;;;;;;9.43;8.50;;;;;;;27.27;46.10;101729.75;10541962;28;20499;-60
2021/06/26 14:21:13;;;;;;;9.13;8.25;;;;;;;26.36;44.17;101732.69;10543228;28;20044;-60
2021/06/26 14:26:16;;;;;;;10.55;8.65;;;;;;;26.18;44.24;101727.50;10542242;28;20525;-61
2021/06/26 14:31:19;;;;;;;10.38;9.10;;;;;;;25.87;46.05;101717.41;10541448;28;20044;-61
2021/06/26 14:36:21;;;;;;;11.15;10.15;;;;;;;25.17;45.04;101715.88;10540877;28;20510;-61
2021/06/26 14:41:23;;;;;;;10.77;9.50;;;;;;;24.91;47.45;101718.59;10540565;28;20167;-60
2021/06/26 14:46:26;;;;;;;11.38;10.38;;;;;;;25.10;45.96;101714.88;10541890;28;20115;-60
2021/06/26 14:51:28;;;;;;;9.52;8.52;;;;;;;25.17;47.05;101712.38;10541236;28;20089;-59
2021/06/26 14:56:30;;;;;;;10.95;9.43;;;;;;;25.16;45.32;101703.47;10541033;28;20528;-60
2021/06/26 15:01:33;;;;;;;10.38;8.77;;;;;;;25.52;47.65;101694.38;10541403;28;20044;-59
2021/06/26 15:06:35;;;;;;;8.40;7.38;;;;;;;26.12;47.74;101685.22;10540997;28;20083;-59
2021/06/26 15:11:38;;;;;;;11.63;10.38;;;;;;;26.64;45.22;101682.13;10540528;28;20405;-59
2021/06/26 15:16:40;;;;;;;8.45;7.75;;;;;;;28.04;43.18;101685.88;10539138;28;20056;-60
2021/06/26 15:21:42;;;;;;;11.32;9.85;;;;;;;26.69;45.40;101678.94;10539429;28;20076;-59
2021/06/26 15:26:45;;;;;;;8.98;8.27;;;;;;;27.55;43.21;101671.78;10539348;28;20048;-59
2021/06/26 15:31:47;;;;;;;11.27;8.50;;;;;;;28.49;43.27;101662.53;10539900;28;20511;-59
2021/06/26 15:36:49;;;;;;;10.18;9.23;;;;;;;26.80;42.47;101659.75;10539802;28;20044;-59
2021/06/26 15:41:52;;;;;;;12.73;9.18;;;;;;;26.37;46.00;101661.88;10540063;28;20048;-59
2021/06/26 15:46:54;;;;;;;12.43;10.93;;;;;;;27.07;40.97;101649.56;10538187;28;20045;-60
2021/06/26 15:51:57;;;;;;;11.38;10.02;;;;;;;27.58;42.59;101652.59;10538089;28;20059;-59
2021/06/26 15:56:59;;;;;;;9.88;8.88;;;;;;;26.44;45.04;101651.28;10539453;28;20052;-61
2021/06/26 16:02:01;;;;;;;12.02;9.77;;;;;;;25.80;45.82;101653.88;10538742;28;20412;-59
2021/06/26 16:07:04;;;;;;;10.45;9.55;;;;;;;25.50;46.80;101651.69;10537601;28;20488;-60
2021/06/26 16:12:07;;;;;;;9.55;8.65;;;;;;;25.77;49.14;101649.66;10539937;28;20047;-59
2021/06/26 16:17:10;;;;;;;9.85;8.60;;;;;;;25.46;48.85;101655.69;10538948;28;20052;-60
2021/06/26 16:22:12;;;;;;;12.05;8.05;;;;;;;24.83;49.05;101655.16;10539372;28;20048;-59
2021/06/26 16:27:15;;;;;;;9.23;8.35;;;;;;;25.12;50.89;101637.84;10538522;28;20071;-59
2021/06/26 16:32:18;;;;;;;8.70;8.00;;;;;;;24.96;51.56;101643.13;10539165;28;20051;-61
2021/06/26 16:37:28;;;;;;;9.43;8.52;;;;;;;24.74;50.74;101648.06;10538215;28;20476;-59
2021/06/26 16:42:31;;;;;;;8.65;7.85;;;;;;;25.74;48.58;101647.34;10537476;28;20051;-60
2021/06/26 16:47:33;;;;;;;8.70;7.90;;;;;;;24.72;50.17;101647.41;10538150;28;20056;-60
2021/06/26 16:52:36;;;;;;;9.50;7.07;;;;;;;25.21;47.56;101641.38;10537940;28;20052;-60
2021/06/26 16:57:38;;;;;;;8.52;7.82;;;;;;;25.55;47.85;101643.13;10543427;28;20056;-60
2021/06/26 17:02:40;;;;;;;7.18;6.65;;;;;;;26.08;46.61;101646.34;10545822;28;20044;-61
2021/06/26 17:07:44;;;;;;;7.50;6.80;;;;;;;26.01;44.48;101632.78;10545973;28;20047;-60
2021/06/26 17:12:48;;;;;;;9.32;7.78;;;;;;;25.92;45.86;101631.06;10545517;28;20597;-60
2021/06/26 17:17:50;;;;;;;8.23;7.43;;;;;;;25.40;50.70;101621.50;10545064;28;20155;-60
2021/06/26 17:22:52;;;;;;;8.57;7.68;;;;;;;25.70;47.50;101624.53;10544935;28;20048;-61
2021/06/26 17:27:55;;;;;;;9.00;8.20;;;;;;;24.99;47.84;101618.72;10544498;28;20059;-59
2021/06/26 17:32:58;;;;;;;8.50;7.70;;;;;;;24.59;49.97;101622.91;10544771;28;20048;-59
2021/06/26 17:38:00;;;;;;;7.53;6.93;;;;;;;24.53;49.42;101632.41;10543231;28;20070;-59
2021/06/26 17:43:03;;;;;;;8.48;6.85;;;;;;;24.53;51.67;101634.22;10544286;28;20075;-60
2021/06/26 17:48:06;;;;;;;8.85;8.05;;;;;;;24.54;50.91;101638.59;10544509;28;20048;-60
2021/06/26 17:53:08;;;;;;;8.35;7.60;;;;;;;24.56;52.17;101633.94;10543756;28;20051;-61
2021/06/26 17:58:11;;;;;;;9.35;8.50;;;;;;;24.52;51.73;101641.41;10542742;28;20063;-59
2021/06/26 18:03:13;;;;;;;9.98;7.30;;;;;;;23.88;53.64;101644.34;10543209;28;20512;-60
2021/06/26 18:08:15;;;;;;;8.85;8.00;;;;;;;23.83;54.92;101645.81;10542695;28;20059;-61
2021/06/26 18:13:18;;;;;;;8.73;7.75;;;;;;;23.40;55.82;101658.06;10543683;28;20052;-60
2021/06/26 18:18:20;;;;;;;9.20;6.88;;;;;;;23.18;58.43;101646.81;10543200;28;20052;-61
2021/06/26 18:23:23;;;;;;;8.48;7.70;;;;;;;22.88;57.47;101650.59;10543155;28;20051;-60
2021/06/26 18:28:26;;;;;;;8.48;7.55;;;;;;;22.39;62.37;101649.00;10541644;28;20484;-60
2021/06/26 18:33:28;;;;;;;8.05;7.35;;;;;;;21.91;63.13;101649.06;10542659;28;20062;-59
2021/06/26 18:38:30;;;;;;;9.20;7.75;;;;;;;21.83;63.64;101661.25;10541370;28;20048;-59
2021/06/26 18:43:35;;;;;;;8.93;7.80;;;;;;;21.65;64.45;101657.59;10541515;28;20051;-59
2021/06/26 18:48:37;;;;;;;9.90;8.77;;;;;;;21.41;65.11;101649.97;10541232;28;20044;-60
2021/06/26 18:53:40;;;;;;;8.32;7.57;;;;;;;21.50;64.30;101649.16;10541574;28;20048;-60
2021/06/26 18:58:47;;;;;;;9.65;8.65;;;;;;;21.16;63.68;101652.16;10540101;28;20128;-60
2021/06/26 19:03:50;;;;;;;8.75;7.93;;;;;;;20.89;66.02;101650.13;10539324;28;20067;-60
2021/06/26 19:08:54;;;;;;;9.27;8.38;;;;;;;20.78;65.42;101649.25;10540474;28;20058;-59
2021/06/26 19:13:57;;;;;;;9.15;8.30;;;;;;;20.66;67.37;101660.13;10539085;28;20052;-59
2021/06/26 19:18:59;;;;;;;10.52;8.98;;;;;;;20.56;66.43;101652.91;10539768;28;20126;-60
2021/06/26 19:24:02;;;;;;;9.07;8.18;;;;;;;20.27;68.00;101665.22;10539018;28;20055;-59
2021/06/26 19:29:05;;;;;;;14.38;9.95;;;;;;;20.14;67.71;101657.41;10538489;28;20074;-60
2021/06/26 19:34:07;;;;;;;10.18;8.82;;;;;;;20.10;67.48;101664.81;10540070;28;20050;-60
2021/06/26 19:39:09;;;;;;;9.25;8.43;;;;;;;19.76;68.07;101674.78;10539297;28;20070;-60
2021/06/26 19:44:12;;;;;;;9.85;8.70;;;;;;;19.59;69.22;101671.66;10538021;28;20048;-60
2021/06/26 19:49:17;;;;;;;13.40;9.35;;;;;;;19.43;68.62;101674.72;10537666;28;20526;-60
2021/06/26 19:54:19;;;;;;;10.85;9.85;;;;;;;19.15;70.21;101678.75;10538893;28;20050;-60
2021/06/26 19:59:22;;;;;;;9.85;8.70;;;;;;;19.14;70.19;101685.00;10538737;28;20056;-60
2021/06/26 20:04:25;;;;;;;10.63;9.73;;;;;;;18.99;69.31;101694.19;10537745;28;20067;-60
2021/06/26 20:09:27;;;;;;;10.63;9.63;;;;;;;18.79;71.22;101690.44;10539021;28;20395;-60
2021/06/26 20:14:29;;;;;;;10.45;9.40;;;;;;;18.84;70.93;101694.44;10539597;28;20067;-60
2021/06/26 20:19:32;;;;;;;11.68;10.60;;;;;;;18.67;71.42;101701.00;10538940;28;20123;-60
2021/06/26 20:24:34;;;;;;;12.02;10.93;;;;;;;18.44;71.66;101697.50;10539348;28;20052;-60
2021/06/26 20:29:37;;;;;;;11.25;10.07;;;;;;;18.29;72.41;101702.16;10539111;28;20055;-60
2021/06/26 20:34:39;;;;;;;11.43;10.32;;;;;;;18.16;72.33;101712.00;10547724;28;20056;-60
2021/06/26 20:39:42;;;;;;;12.25;11.20;;;;;;;18.14;73.12;101711.25;10546951;28;20040;-60
2021/06/26 20:44:45;;;;;;;11.45;10.45;;;;;;;18.07;72.23;101707.38;10546093;28;20060;-59
2021/06/26 20:49:47;;;;;;;12.35;11.15;;;;;;;17.85;73.21;101705.44;10546831;28;20075;-60
2021/06/26 20:54:50;;;;;;;13.63;12.25;;;;;;;17.91;73.20;101707.69;10546610;28;20048;-59
2021/06/26 20:59:52;;;;;;;12.68;11.43;;;;;;;17.78;73.47;101716.47;10546204;28;20491;-61
2021/06/26 21:04:54;;;;;;;12.88;11.57;;;;;;;17.79;73.84;101712.91;10544923;28;20052;-60
2021/06/26 21:09:57;;;;;;;13.73;12.50;;;;;;;17.68;74.43;101704.88;10545941;28;20047;-60
2021/06/26 21:14:59;;;;;;;13.35;12.05;;;;;;;17.67;73.87;101710.28;10545854;28;20054;-60
2021/06/26 21:20:07;;;;;;;13.07;11.85;;;;;;;17.50;75.03;101709.72;10545501;28;20048;-59
2021/06/26 21:25:12;;;;;;;14.93;13.00;;;;;;;17.41;74.84;101716.50;10544385;28;20051;-59
2021/06/26 21:30:14;;;;;;;17.85;13.82;;;;;;;17.33;74.80;101710.94;10544886;28;20051;-59
2021/06/26 21:35:17;;;;;;;17.35;13.13;;;;;;;17.29;74.61;101717.41;10545513;28;20048;-59
2021/06/26 21:40:20;;;;;;;13.85;12.60;;;;;;;17.30;75.77;101715.59;10544187;28;20497;-59
2021/06/26 21:45:23;;;;;;;19.80;13.93;;;;;;;17.10;76.55;101715.22;10544223;28;20492;-59
2021/06/26 21:50:25;;;;;;;14.90;13.35;;;;;;;17.19;75.90;101722.50;10544996;28;20048;-59
2021/06/26 21:55:28;;;;;;;15.55;13.95;;;;;;;17.01;77.30;101714.06;10544041;28;20063;-60
2021/06/26 22:00:36;;;;;;;17.45;15.57;;;;;;;17.15;75.96;101715.75;10544334;28;20134;-60
2021/06/26 22:05:40;;;;;;;15.75;14.00;;;;;;;17.09;75.66;101716.16;10544675;28;20077;-60
2021/06/26 22:10:43;;;;;;;17.50;15.50;;;;;;;16.99;75.88;101723.06;10543595;28;20077;-60
2021/06/26 22:15:46;;;;;;;19.38;15.15;;;;;;;17.01;76.68;101719.38;10543244;28;20052;-61
2021/06/26 22:20:50;;;;;;;16.98;15.27;;;;;;;16.94;76.67;101720.72;10543323;28;20443;-60
2021/06/26 22:25:52;;;;;;;16.83;15.13;;;;;;;16.82;77.10;101719.75;10542818;28;20044;-60
2021/06/26 22:30:55;;;;;;;17.65;15.95;;;;;;;16.87;76.90;101719.47;10541498;28;20050;-60
2021/06/26 22:35:57;;;;;;;20.23;15.18;;;;;;;16.92;77.10;101719.16;10543065;28;20044;-59
2021/06/26 22:41:00;;;;;;;18.55;16.75;;;;;;;16.86;78.17;101718.63;10542982;28;20051;-59
2021/06/26 22:46:03;;;;;;;18.35;16.50;;;;;;;16.94;78.14;101718.09;10541961;28;20054;-59
2021/06/26 22:51:05;;;;;;;19.50;17.33;;;;;;;16.96;77.98;101716.16;10542032;28;20063;-59
2021/06/26 22:56:08;;;;;;;19.98;18.00;;;;;;;16.79;79.02;101712.03;10540953;28;20052;-59